Terminal Aerodrome Forecast
Issued by NWS Tulsa, OK

Home | Current Version | Previous Version | Text Only | Print | Product List | Glossary On
Versions: 1 2 3 4 5 6 7 8 9 10 11 12 13 14 15 16 17 18 19 20 21 22 23 24 25 26 27 28 29 30
923
FTPQ31 PGUM 062158 RRA
TAFTSA
TAF
PTSA 062158Z 0622/0718 09016KT P6SM VCSH SCT014 BKN050 OVC100
      TEMPO 0622/0702 5SM SHRA BKN014 OVC030=

USA.gov is the U.S. government's official web portal to all federal, state and local government web resources and services.